createdAt,value
2023-01-11T01:42:24.016Z,-14.13
2023-01-11T01:45:18.794Z,-14.15
2023-01-11T01:48:19.885Z,-14.08
2023-01-11T01:51:55.777Z,-14.10
2023-01-11T01:54:31.536Z,-14.10
2023-01-11T02:02:10.939Z,-14.03
2023-01-11T02:04:48.057Z,-14.05
2023-01-11T02:07:22.451Z,-14.10
2023-01-11T02:10:12.654Z,-14.02
2023-01-11T02:12:48.227Z,-14.11
2023-01-11T02:15:20.267Z,-14.12
2023-01-11T02:17:49.615Z,-14.09
2023-01-11T02:21:01.271Z,-14.07
2023-01-11T02:24:00.876Z,-14.04
2023-01-11T02:27:26.684Z,-14.06
2023-01-11T02:30:30.960Z,-14.08
2023-01-11T02:33:27.920Z,-14.04
2023-01-11T02:36:28.701Z,-14.06
2023-01-11T02:39:28.087Z,-14.06
2023-01-11T02:42:56.942Z,-14.03
2023-01-11T02:46:01.719Z,-14.06
2023-01-11T02:48:43.481Z,-14.09
2023-01-11T02:51:47.230Z,-14.07
2023-01-11T02:54:20.133Z,-14.05
2023-01-11T02:56:56.616Z,-14.05
2023-01-11T02:59:31.632Z,-14.06
2023-01-11T03:02:04.691Z,-14.06
2023-01-11T03:04:46.297Z,-14.06
2023-01-11T03:07:33.265Z,-14.07
2023-01-11T03:10:34.154Z,-14.09
2023-01-11T03:13:45.184Z,-14.00
2023-01-11T03:16:50.132Z,-14.02
2023-01-11T03:19:37.168Z,-14.05
2023-01-11T03:22:28.938Z,-14.05
2023-01-11T03:25:17.086Z,-14.08
2023-01-11T03:28:06.247Z,-14.15
2023-01-11T03:31:10.622Z,-14.08
2023-01-11T03:33:48.211Z,-13.99
2023-01-11T03:36:27.568Z,-14.02
2023-01-11T03:39:30.748Z,-14.02
2023-01-11T03:42:05.572Z,-14.04
2023-01-11T03:44:44.209Z,-14.04
2023-01-11T03:47:16.262Z,-14.03
2023-01-11T03:49:59.503Z,-13.96
2023-01-11T03:52:41.770Z,-13.98
2023-01-11T03:55:16.609Z,-13.90
2023-01-11T03:57:51.014Z,-13.92
2023-01-11T04:00:22.780Z,-13.99
2023-01-11T04:02:53.717Z,-13.98
2023-01-11T04:05:22.961Z,-13.95
2023-01-11T04:07:53.934Z,-13.95
2023-01-11T04:10:25.931Z,-13.87
2023-01-11T04:12:56.725Z,-13.90
2023-01-11T04:15:26.077Z,-13.85
2023-01-11T04:17:55.577Z,-13.90
2023-01-11T04:20:29.025Z,-13.88
2023-01-11T04:23:00.655Z,-13.87
2023-01-11T04:25:32.106Z,-13.85
2023-01-11T04:28:02.642Z,-13.87
2023-01-11T04:30:35.549Z,-13.81
2023-01-11T04:33:05.469Z,-13.81
2023-01-11T04:35:34.770Z,-13.81
2023-01-11T04:38:04.876Z,-13.81
2023-01-11T04:40:33.915Z,-13.81
2023-01-11T04:43:03.563Z,-13.78
2023-01-11T04:45:33.885Z,-13.76
2023-01-11T04:48:03.583Z,-13.81
2023-01-11T04:50:33.710Z,-13.81
2023-01-11T04:53:03.255Z,-13.80
2023-01-11T04:55:33.501Z,-13.83
2023-01-11T04:58:03.062Z,-13.75
2023-01-11T05:00:33.258Z,-13.73
2023-01-11T05:03:02.074Z,-13.68
2023-01-11T05:05:31.832Z,-13.69
2023-01-11T05:08:01.078Z,-13.67
2023-01-11T05:10:32.943Z,-13.64
2023-01-11T05:13:02.139Z,-13.63
2023-01-11T05:15:31.576Z,-13.63
2023-01-11T05:18:02.162Z,-13.64
2023-01-11T05:20:32.696Z,-13.59
2023-01-11T05:23:02.233Z,-13.59
2023-01-11T05:25:34.192Z,-13.59
2023-01-11T05:28:08.417Z,-13.59
2023-01-11T05:30:40.897Z,-13.49
2023-01-11T05:33:12.014Z,-13.49
2023-01-11T05:35:41.992Z,-13.44
2023-01-11T05:38:12.542Z,-13.40
2023-01-11T05:40:43.717Z,-13.43
2023-01-11T05:43:15.800Z,-13.41
2023-01-11T05:45:45.239Z,-13.34
2023-01-11T05:48:16.802Z,-13.14
2023-01-11T05:50:52.026Z,-12.91
2023-01-11T05:53:24.699Z,-12.67
2023-01-11T05:55:59.001Z,-12.23
2023-01-11T05:58:30.532Z,-11.97
2023-01-11T06:01:01.340Z,-11.33
2023-01-11T06:03:36.631Z,-11.39
2023-01-11T06:06:06.209Z,-11.17
2023-01-11T06:08:36.620Z,-11.03
2023-01-11T06:11:05.997Z,-10.63
2023-01-11T06:13:39.041Z,-10.65
2023-01-11T06:16:19.897Z,-10.87
2023-01-11T06:18:54.611Z,-10.53
2023-01-11T06:21:25.820Z,-10.93
2023-01-11T06:23:57.308Z,-11.37
2023-01-11T06:26:28.908Z,-11.57
2023-01-11T06:28:58.300Z,-11.44
2023-01-11T06:31:34.409Z,-10.77
2023-01-11T06:34:04.945Z,-10.12
2023-01-11T06:36:35.434Z,-9.68
2023-01-11T06:39:06.517Z,-10.27
2023-01-11T06:41:39.900Z,-9.93
2023-01-11T06:44:09.106Z,-10.35
2023-01-11T06:46:42.230Z,-10.24
2023-01-11T06:49:18.910Z,-10.64
2023-01-11T06:51:52.735Z,-10.96
2023-01-11T06:54:41.264Z,-11.26
2023-01-11T06:57:14.627Z,-11.42
2023-01-11T06:59:45.146Z,-11.54
2023-01-11T07:02:15.278Z,-11.59
2023-01-11T07:04:49.002Z,-11.48
2023-01-11T11:26:21.738Z,-4.93
2023-01-11T11:30:21.761Z,-4.93
2023-01-11T11:38:06.407Z,-4.82
2023-01-11T11:44:51.036Z,-4.79
2023-01-11T11:48:32.339Z,-4.69
2023-01-11T11:52:22.490Z,-4.62
2023-01-11T11:56:22.930Z,-4.83
2023-01-11T12:07:54.920Z,-4.81
2023-01-11T12:15:59.342Z,-4.89
2023-01-11T12:28:45.898Z,-4.98
2023-01-11T12:35:54.401Z,-5.02
2023-01-11T12:43:37.384Z,-5.08
2023-01-11T12:47:58.379Z,-5.11
2023-01-11T12:51:34.289Z,-5.16
2023-01-11T12:55:21.341Z,-5.07
2023-01-11T12:59:10.419Z,-5.15
2023-01-11T13:02:25.683Z,-5.27
2023-01-11T13:05:43.426Z,-5.28
2023-01-11T13:09:19.445Z,-5.34
2023-01-11T13:13:19.407Z,-5.39
2023-01-11T13:16:47.968Z,-5.47
2023-01-11T13:24:06.111Z,-5.59
2023-01-11T13:27:46.521Z,-5.69
2023-01-11T13:31:17.421Z,-5.74
2023-01-11T13:35:17.376Z,-5.82
2023-01-11T13:39:27.421Z,-5.88
2023-01-11T13:43:22.374Z,-5.98
2023-01-11T13:50:42.439Z,-6.21
2023-01-11T13:54:32.468Z,-6.27
2023-01-11T13:58:20.670Z,-6.36
2023-01-11T14:02:18.936Z,-6.39
2023-01-11T14:05:58.677Z,-6.49
2023-01-11T14:09:54.593Z,-6.58
2023-01-11T14:14:29.470Z,-6.69
2023-01-11T14:18:21.201Z,-6.77
2023-01-11T14:22:10.195Z,-6.85
2023-01-11T14:29:57.510Z,-6.99
2023-01-11T14:33:49.479Z,-7.11
2023-01-11T14:37:39.177Z,-7.17
2023-01-11T14:41:30.239Z,-7.16
2023-01-11T14:45:43.285Z,-7.22
2023-01-11T14:49:42.288Z,-7.25
2023-01-11T14:52:56.055Z,-7.39
2023-01-11T14:56:47.831Z,-7.41
2023-01-11T15:00:17.700Z,-7.46
2023-01-11T15:03:47.306Z,-7.47
2023-01-11T15:07:57.411Z,-7.57
2023-01-11T15:11:50.490Z,-7.56
2023-01-11T15:15:27.293Z,-7.61
2023-01-11T15:18:56.581Z,-7.64
2023-01-11T15:23:15.991Z,-7.78
2023-01-11T15:26:21.882Z,-7.86
2023-01-11T15:29:52.901Z,-7.96
2023-01-11T15:33:22.449Z,-8.08
2023-01-11T15:37:02.479Z,-8.13
2023-01-11T15:40:22.754Z,-8.10
2023-01-11T15:44:03.377Z,-8.13
2023-01-11T15:47:24.951Z,-8.19
2023-01-11T15:50:46.523Z,-8.29
2023-01-11T15:53:33.702Z,-8.32
2023-01-11T15:56:41.595Z,-8.39
2023-01-11T16:00:32.669Z,-8.44
2023-01-11T16:04:03.531Z,-8.50
2023-01-11T16:06:55.289Z,-8.52
2023-01-11T16:10:12.398Z,-8.56
2023-01-11T16:13:16.543Z,-8.58
2023-01-11T16:16:19.240Z,-8.57
2023-01-11T16:19:29.112Z,-8.55
2023-01-11T16:22:09.357Z,-8.58
2023-01-11T16:24:49.000Z,-8.58
2023-01-11T16:27:41.505Z,-8.59
2023-01-11T16:30:23.650Z,-8.60
2023-01-11T16:33:56.893Z,-8.62
2023-01-11T16:36:56.343Z,-8.62
2023-01-11T16:39:35.692Z,-8.59
2023-01-11T16:42:07.737Z,-8.56
2023-01-11T16:45:15.634Z,-8.55
2023-01-11T16:48:35.905Z,-8.55
2023-01-11T16:51:18.109Z,-8.51
2023-01-11T16:54:01.240Z,-8.53
2023-01-11T16:56:36.492Z,-8.49
2023-01-11T17:00:01.498Z,-8.46
2023-01-11T17:03:28.367Z,-8.46
2023-01-11T17:06:47.282Z,-8.47
2023-01-11T17:09:39.215Z,-8.44
2023-01-11T17:13:02.567Z,-8.39
2023-01-11T17:16:54.280Z,-8.36
2023-01-11T17:20:27.737Z,-8.31
2023-01-11T17:23:39.975Z,-8.27
2023-01-11T17:27:14.899Z,-8.25
2023-01-11T17:30:11.437Z,-8.22
2023-01-11T17:33:04.535Z,-8.20
2023-01-11T17:35:59.612Z,-8.19
2023-01-11T17:39:15.257Z,-8.16
2023-01-11T17:43:03.678Z,-8.12
2023-01-11T17:47:03.440Z,-8.05
2023-01-11T17:50:47.381Z,-8.02
2023-01-11T17:54:19.073Z,-7.95
2023-01-11T17:57:44.348Z,-7.91
2023-01-11T18:01:19.795Z,-7.87
2023-01-11T18:04:41.959Z,-7.83
2023-01-11T18:08:14.627Z,-7.79
2023-01-11T18:11:17.593Z,-7.75
2023-01-11T18:15:31.993Z,-7.72
2023-01-11T18:19:22.742Z,-7.66
2023-01-11T18:23:17.706Z,-7.62
2023-01-11T18:27:58.596Z,-7.60
2023-01-11T18:31:14.620Z,-7.56
2023-01-11T18:34:03.211Z,-7.50
2023-01-11T18:37:58.733Z,-7.50
2023-01-11T18:41:33.618Z,-7.46
2023-01-11T18:44:57.798Z,-7.42
2023-01-11T18:48:16.438Z,-7.43
2023-01-11T18:51:47.111Z,-7.48
2023-01-11T18:54:58.272Z,-7.55
2023-01-11T18:58:34.673Z,-7.53
2023-01-11T19:06:06.693Z,-7.43
2023-01-11T19:10:21.065Z,-7.41
2023-01-11T19:13:51.061Z,-7.35
2023-01-11T19:16:46.022Z,-7.34
2023-01-11T19:19:32.186Z,-7.25
2023-01-11T19:23:09.940Z,-7.21
2023-01-11T19:27:28.176Z,-7.19
2023-01-11T19:30:57.419Z,-7.15
2023-01-11T19:34:18.818Z,-7.16
2023-01-11T19:39:02.839Z,-7.15
2023-01-11T19:42:19.711Z,-7.14
2023-01-11T19:46:31.874Z,-7.13
2023-01-11T19:53:54.139Z,-7.12
2023-01-11T19:57:46.699Z,-7.11
2023-01-11T20:01:47.183Z,-7.09
2023-01-11T20:05:21.612Z,-7.07
2023-01-11T20:08:39.772Z,-7.06
2023-01-11T20:20:38.583Z,-7.01
2023-01-11T20:23:56.571Z,-7.00
2023-01-11T20:28:01.852Z,-7.01
2023-01-11T20:32:13.450Z,-6.99
2023-01-11T20:39:32.430Z,-6.98
2023-01-11T20:43:05.832Z,-6.97
2023-01-11T20:50:28.719Z,-6.98
2023-01-11T20:53:47.566Z,-6.96
2023-01-11T20:57:22.749Z,-6.93
2023-01-11T21:01:36.635Z,-6.92
2023-01-11T21:05:18.283Z,-6.92
2023-01-11T21:08:48.516Z,-6.91
2023-01-11T21:12:14.979Z,-6.91
2023-01-11T21:15:33.153Z,-6.89
2023-01-11T21:18:54.840Z,-6.87
2023-01-11T21:22:30.761Z,-6.88
2023-01-11T21:26:17.100Z,-6.87
2023-01-11T21:34:13.174Z,-6.86
2023-01-11T21:37:42.797Z,-6.85
2023-01-11T21:41:50.321Z,-6.84
2023-01-11T21:45:25.113Z,-6.83
2023-01-11T21:48:52.267Z,-6.85
2023-01-11T21:52:08.028Z,-6.90
2023-01-11T21:55:27.838Z,-6.93
2023-01-11T21:59:13.462Z,-6.96
2023-01-11T22:02:41.727Z,-6.96
2023-01-11T22:05:34.863Z,-6.93
2023-01-11T22:20:38.761Z,-7.05
2023-01-11T22:24:29.321Z,-7.03
2023-01-11T22:28:15.381Z,-7.02
2023-01-11T22:31:57.116Z,-7.06
2023-01-11T22:35:29.112Z,-7.13
2023-01-11T22:39:14.730Z,-7.18
2023-01-11T22:43:06.071Z,-7.20
2023-01-11T22:46:50.175Z,-7.21
2023-01-11T22:50:37.244Z,-7.22
2023-01-11T22:54:15.928Z,-7.28
2023-01-11T22:57:56.191Z,-7.31
2023-01-11T23:01:47.236Z,-7.32
2023-01-11T23:09:45.948Z,-7.38
2023-01-11T23:17:33.876Z,-7.42
2023-01-11T23:20:57.884Z,-7.43
2023-01-11T23:24:33.752Z,-7.44
2023-01-11T23:27:53.788Z,-7.49
2023-01-11T23:31:14.043Z,-7.54
2023-01-11T23:34:33.682Z,-7.53
2023-01-11T23:38:17.215Z,-7.56
2023-01-11T23:41:33.022Z,-7.55
2023-01-11T23:45:02.403Z,-7.57
2023-01-11T23:48:42.561Z,-7.57
2023-01-11T23:52:16.214Z,-7.58
2023-01-11T23:55:26.278Z,-7.59
2023-01-11T23:58:27.177Z,-7.64
